Time;durP1;ratioP1;P1;durP2;ratioP2;P2;SDS_P1;SDS_P2;PMS_P1;PMS_P2;Temp;Humidity;BMP_temperature;BMP_pressure;BME280_temperature;BME280_humidity;BME280_pressure;Samples;Min_cycle;Max_cycle;Signal;HPM_P1;HPM_P2
2023/02/18 00:00:25;;;;;;;;;;;18.80;46.90;;;;;;5006432;28;19968;-72
2023/02/18 00:02:51;;;;;;;;;;;18.90;46.90;;;;;;5007572;28;19964;-74
2023/02/18 00:05:16;;;;;;;;;;;18.80;46.90;;;;;;5007856;28;20205;-71
2023/02/18 00:07:42;;;;;;;;;;;18.80;47.10;;;;;;5007818;28;19933;-74
2023/02/18 00:10:12;;;;;;;;;;;18.70;47.10;;;;;;5007652;28;19902;-72
2023/02/18 00:12:38;;;;;;;;;;;18.70;47.20;;;;;;5007903;28;20220;-72
2023/02/18 00:15:04;;;;;;;;;;;18.70;47.30;;;;;;5006995;28;19901;-71
2023/02/18 00:17:29;;;;;;;;;;;18.60;47.30;;;;;;5007137;28;19925;-71
2023/02/18 00:19:56;;;;;;;;;;;18.60;47.40;;;;;;5004027;28;19918;-70
2023/02/18 00:22:22;;;;;;;;;;;18.60;47.40;;;;;;5006406;28;19909;-72
2023/02/18 00:24:47;;;;;;;;;;;18.60;47.60;;;;;;5006907;28;20177;-72
2023/02/18 00:27:13;;;;;;;;;;;18.50;47.50;;;;;;5006542;28;19901;-73
2023/02/18 00:29:38;;;;;;;;;;;18.60;47.60;;;;;;5007264;28;19909;-74
2023/02/18 00:32:04;;;;;;;;;;;18.50;47.60;;;;;;5006388;28;19902;-74
2023/02/18 00:34:29;;;;;;;;;;;18.50;47.70;;;;;;5007019;28;20137;-72
2023/02/18 00:36:55;;;;;;;;;;;18.50;47.70;;;;;;5006810;28;19910;-72
2023/02/18 00:39:20;;;;;;;;;;;18.40;47.70;;;;;;5006512;28;20141;-74
2023/02/18 00:41:46;;;;;;;;;;;18.40;47.80;;;;;;5004975;28;19909;-71
2023/02/18 00:44:11;;;;;;;;;;;18.40;48.50;;;;;;5004907;28;19914;-71
2023/02/18 00:46:37;;;;;;;;;;;18.40;47.90;;;;;;5004257;28;19914;-71
2023/02/18 00:49:03;;;;;;;;;;;18.30;47.90;;;;;;5005175;28;19910;-71
2023/02/18 00:51:29;;;;;;;;;;;18.30;48.00;;;;;;5005139;28;19901;-71
2023/02/18 00:53:55;;;;;;;;;;;18.30;48.10;;;;;;5004038;28;19928;-71
2023/02/18 00:56:20;;;;;;;;;;;18.40;48.10;;;;;;5005173;28;19913;-71
2023/02/18 00:58:46;;;;;;;;;;;18.40;47.90;;;;;;5006153;28;19972;-71
2023/02/18 01:01:12;;;;;;;;;;;18.50;47.60;;;;;;5005958;28;19910;-72
2023/02/18 01:03:39;;;;;;;;;;;18.50;47.50;;;;;;5005933;28;19949;-72
2023/02/18 01:06:05;;;;;;;;;;;18.60;47.30;;;;;;5005550;28;19910;-71
2023/02/18 01:08:31;;;;;;;;;;;18.60;47.30;;;;;;5005997;28;20404;-72
2023/02/18 01:10:57;;;;;;;;;;;18.70;47.20;;;;;;5006173;28;19976;-73
2023/02/18 01:13:23;;;;;;;;;;;18.70;47.20;;;;;;5005867;28;19968;-72
2023/02/18 01:15:49;;;;;;;;;;;18.70;47.10;;;;;;5006739;28;19901;-71
2023/02/18 01:18:15;;;;;;;;;;;18.70;47.10;;;;;;5006371;28;20149;-72
2023/02/18 01:20:41;;;;;;;;;;;18.80;47.10;;;;;;5006694;28;19909;-71
2023/02/18 01:23:08;;;;;;;;;;;18.80;47.10;;;;;;5005287;28;19965;-71
2023/02/18 01:25:34;;;;;;;;;;;18.70;47.00;;;;;;5006371;28;20089;-72
2023/02/18 01:28:00;;;;;;;;;;;18.70;47.00;;;;;;5008676;28;19909;-72
2023/02/18 01:30:25;;;;;;;;;;;18.70;47.20;;;;;;5008529;28;19930;-72
2023/02/18 01:32:51;;;;;;;;;;;18.60;47.90;;;;;;5009178;28;19980;-72
2023/02/18 01:35:17;;;;;;;;;;;18.60;47.30;;;;;;5009809;28;19936;-72
2023/02/18 01:37:44;;;;;;;;;;;18.50;47.40;;;;;;5008109;28;19913;-74
2023/02/18 01:40:11;;;;;;;;;;;18.50;47.50;;;;;;5009390;28;19910;-71
2023/02/18 01:42:36;;;;;;;;;;;18.50;47.60;;;;;;5010056;28;19910;-72
2023/02/18 01:45:20;;;;;;;;;;;18.50;47.60;;;;;;5009407;28;19914;-73
2023/02/18 01:47:46;;;;;;;;;;;18.50;47.60;;;;;;5009503;28;19906;-72
2023/02/18 01:50:11;;;;;;;;;;;18.50;47.60;;;;;;5008944;28;19910;-73
2023/02/18 01:52:37;;;;;;;;;;;18.50;47.60;;;;;;5009947;28;19985;-72
2023/02/18 01:55:03;;;;;;;;;;;18.50;47.70;;;;;;5008116;28;19921;-71
2023/02/18 01:57:36;;;;;;;;;;;18.50;47.70;;;;;;5007260;28;19955;-73
2023/02/18 02:00:11;;;;;;;;;;;18.50;47.70;;;;;;5008537;28;19935;-73
2023/02/18 02:02:39;;;;;;;;;;;18.50;47.90;;;;;;5009696;28;20300;-71
2023/02/18 02:05:05;;;;;;;;;;;18.40;47.80;;;;;;5008447;28;19981;-71
2023/02/18 02:07:30;;;;;;;;;;;18.40;47.90;;;;;;5008435;28;19902;-73
2023/02/18 02:09:57;;;;;;;;;;;18.40;47.90;;;;;;5008307;28;19901;-73
2023/02/18 02:12:22;;;;;;;;;;;18.40;47.90;;;;;;5008540;28;19914;-72
2023/02/18 02:15:05;;;;;;;;;;;18.40;47.90;;;;;;5008176;28;20276;-75
2023/02/18 02:17:49;;;;;;;;;;;18.40;47.90;;;;;;5007465;28;19909;-74
2023/02/18 02:20:17;;;;;;;;;;;18.50;47.90;;;;;;5009529;28;19917;-71
2023/02/18 02:22:45;;;;;;;;;;;18.60;47.70;;;;;;5009428;28;19909;-71
2023/02/18 02:25:11;;;;;;;;;;;18.60;47.50;;;;;;5007646;28;19973;-72
2023/02/18 02:27:55;;;;;;;;;;;18.70;47.40;;;;;;5007551;28;19938;-73
2023/02/18 02:30:43;;;;;;;;;;;18.70;47.30;;;;;;5008527;28;20012;-75
2023/02/18 02:33:18;;;;;;;;;;;18.70;47.70;;;;;;5009555;28;19917;-71
2023/02/18 02:36:03;;;;;;;;;;;18.70;47.00;;;;;;5008872;28;19909;-72
2023/02/18 02:38:32;;;;;;;;;;;18.70;47.10;;;;;;5007641;28;19910;-72
2023/02/18 02:41:11;;;;;;;;;;;18.70;47.00;;;;;;5008775;28;20157;-71
2023/02/18 02:43:54;;;;;;;;;;;18.80;47.00;;;;;;5008836;28;19901;-73
2023/02/18 02:46:28;;;;;;;;;;;18.80;46.90;;;;;;5007510;28;19960;-72
2023/02/18 02:48:59;;;;;;;;;;;18.90;46.90;;;;;;5008808;28;20130;-71
2023/02/18 02:51:30;;;;;;;;;;;18.90;46.90;;;;;;5008329;28;20252;-71
2023/02/18 02:54:08;;;;;;;;;;;18.80;46.90;;;;;;5009313;28;19914;-73
2023/02/18 02:56:33;;;;;;;;;;;18.80;47.00;;;;;;5009195;28;20005;-72
2023/02/18 02:59:05;;;;;;;;;;;18.70;47.00;;;;;;5007764;28;19937;-73
2023/02/18 03:01:35;;;;;;;;;;;18.70;47.10;;;;;;5009160;28;19917;-71
2023/02/18 03:04:10;;;;;;;;;;;18.60;47.20;;;;;;5008331;28;19956;-73
2023/02/18 03:06:54;;;;;;;;;;;18.60;47.40;;;;;;5008576;28;19976;-69
2023/02/18 03:09:42;;;;;;;;;;;18.60;47.50;;;;;;5008287;28;19910;-72
2023/02/18 03:12:17;;;;;;;;;;;18.50;47.50;;;;;;5003091;28;19909;-72
2023/02/18 03:14:43;;;;;;;;;;;18.50;47.60;;;;;;5007286;28;19901;-72
2023/02/18 03:17:22;;;;;;;;;;;18.50;47.50;;;;;;5007435;28;19917;-72
2023/02/18 03:19:57;;;;;;;;;;;18.50;47.60;;;;;;5005617;28;19902;-72
2023/02/18 03:22:35;;;;;;;;;;;18.50;47.60;;;;;;5006815;28;19933;-71
2023/02/18 03:25:01;;;;;;;;;;;18.50;47.60;;;;;;5008199;28;19920;-71
2023/02/18 03:27:30;;;;;;;;;;;18.50;48.30;;;;;;5007931;28;19937;-76
2023/02/18 03:30:01;;;;;;;;;;;18.50;47.70;;;;;;5007386;28;19917;-73
2023/02/18 03:32:28;;;;;;;;;;;18.50;47.80;;;;;;5006290;28;19910;-71
2023/02/18 03:34:57;;;;;;;;;;;18.50;47.90;;;;;;5005347;28;20383;-72
2023/02/18 03:37:23;;;;;;;;;;;18.50;47.90;;;;;;5005319;28;19902;-72
2023/02/18 03:39:51;;;;;;;;;;;18.50;47.90;;;;;;5007825;28;19901;-71
2023/02/18 03:42:17;;;;;;;;;;;18.40;47.90;;;;;;5007787;28;19914;-70
2023/02/18 03:44:43;;;;;;;;;;;18.40;48.70;;;;;;5006756;28;20156;-75
2023/02/18 03:47:08;;;;;;;;;;;18.40;48.00;;;;;;5007045;28;19906;-73
2023/02/18 03:49:34;;;;;;;;;;;18.50;47.90;;;;;;5007902;28;20124;-72
2023/02/18 03:51:59;;;;;;;;;;;18.60;47.70;;;;;;5007047;28;19914;-73
2023/02/18 03:54:25;;;;;;;;;;;18.70;47.50;;;;;;5007169;28;19973;-73
2023/02/18 03:56:50;;;;;;;;;;;18.80;47.30;;;;;;5007280;28;19916;-73
2023/02/18 03:59:16;;;;;;;;;;;18.80;47.20;;;;;;5006404;28;19917;-73
2023/02/18 04:01:42;;;;;;;;;;;18.80;47.00;;;;;;5007486;28;19933;-71
2023/02/18 04:04:07;;;;;;;;;;;18.80;47.10;;;;;;5006606;28;20229;-72
2023/02/18 04:06:33;;;;;;;;;;;18.80;47.00;;;;;;5004760;28;19901;-74
2023/02/18 04:08:59;;;;;;;;;;;18.90;47.00;;;;;;5005809;28;20218;-73
2023/02/18 04:11:24;;;;;;;;;;;18.80;47.00;;;;;;5006313;28;19920;-73
2023/02/18 04:13:50;;;;;;;;;;;18.90;47.00;;;;;;5006311;28;19910;-71
2023/02/18 04:16:16;;;;;;;;;;;18.90;47.00;;;;;;5006052;28;19913;-74
2023/02/18 04:18:41;;;;;;;;;;;18.90;47.00;;;;;;5006174;28;20184;-72
2023/02/18 04:21:07;;;;;;;;;;;18.90;46.90;;;;;;5006451;28;19909;-75
2023/02/18 04:23:32;;;;;;;;;;;18.80;47.00;;;;;;5006446;28;19987;-72
2023/02/18 04:25:58;;;;;;;;;;;18.80;47.10;;;;;;5006324;28;19909;-74
2023/02/18 04:28:23;;;;;;;;;;;18.70;47.20;;;;;;5004701;28;19902;-72
2023/02/18 04:30:49;;;;;;;;;;;18.70;47.30;;;;;;5006373;28;19924;-74
2023/02/18 04:33:15;;;;;;;;;;;18.70;47.30;;;;;;5006376;28;19910;-73
2023/02/18 04:35:40;;;;;;;;;;;18.60;47.30;;;;;;5006184;28;20404;-72
2023/02/18 04:38:06;;;;;;;;;;;18.60;47.50;;;;;;5006473;28;19917;-71
2023/02/18 04:40:32;;;;;;;;;;;18.60;47.50;;;;;;5005955;28;19909;-71
2023/02/18 04:42:58;;;;;;;;;;;18.60;47.60;;;;;;5005811;28;20141;-73
2023/02/18 04:45:25;;;;;;;;;;;18.60;47.60;;;;;;5005536;28;20101;-72
2023/02/18 04:47:50;;;;;;;;;;;18.60;47.60;;;;;;5006557;28;19909;-71
2023/02/18 04:50:16;;;;;;;;;;;18.60;47.80;;;;;;5005132;28;19909;-74
2023/02/18 04:52:42;;;;;;;;;;;18.60;47.80;;;;;;5006140;28;19916;-73
2023/02/18 04:55:08;;;;;;;;;;;18.60;47.90;;;;;;5006036;28;19921;-74
2023/02/18 04:57:34;;;;;;;;;;;18.50;47.90;;;;;;5005861;28;19902;-74
2023/02/18 05:00:00;;;;;;;;;;;18.50;48.00;;;;;;5005244;28;19972;-72
2023/02/18 05:02:25;;;;;;;;;;;18.50;48.00;;;;;;5006210;28;19910;-72
2023/02/18 05:04:51;;;;;;;;;;;18.50;48.10;;;;;;5006134;28;19921;-72
2023/02/18 05:07:16;;;;;;;;;;;18.50;48.20;;;;;;5005440;28;19910;-72
2023/02/18 05:09:42;;;;;;;;;;;18.40;48.10;;;;;;5004709;28;19920;-70
2023/02/18 05:12:07;;;;;;;;;;;18.40;48.10;;;;;;5004839;28;19917;-73
2023/02/18 05:14:33;;;;;;;;;;;18.50;48.00;;;;;;5006064;28;20051;-72
2023/02/18 05:16:58;;;;;;;;;;;18.60;48.00;;;;;;5005641;28;19937;-73
2023/02/18 05:19:24;;;;;;;;;;;18.70;47.80;;;;;;5004597;28;19956;-71
2023/02/18 05:21:50;;;;;;;;;;;18.80;47.60;;;;;;5005730;28;19918;-72
2023/02/18 05:24:15;;;;;;;;;;;18.90;47.40;;;;;;5006446;28;19906;-72
2023/02/18 05:26:41;;;;;;;;;;;18.90;47.30;;;;;;5005080;28;19925;-73
2023/02/18 05:29:06;;;;;;;;;;;18.90;47.30;;;;;;5003877;28;19917;-74
2023/02/18 05:31:32;;;;;;;;;;;18.90;47.10;;;;;;5004890;28;19909;-72
2023/02/18 05:33:57;;;;;;;;;;;19.00;47.10;;;;;;5006374;28;19940;-72
2023/02/18 05:36:23;;;;;;;;;;;18.90;47.10;;;;;;5006604;28;19909;-71
2023/02/18 05:38:49;;;;;;;;;;;18.90;47.10;;;;;;5006705;28;20221;-73
2023/02/18 05:41:14;;;;;;;;;;;18.90;47.20;;;;;;5006480;28;19909;-72
2023/02/18 05:46:24;;;;;;;;;;;18.80;47.50;;;;;;5005760;28;19944;-75
2023/02/18 05:48:50;;;;;;;;;;;18.80;47.50;;;;;;5005618;28;19910;-74
2023/02/18 05:51:15;;;;;;;;;;;18.70;47.60;;;;;;5005156;28;19909;-73
2023/02/18 05:53:41;;;;;;;;;;;18.70;47.70;;;;;;5005982;28;19984;-72
2023/02/18 05:56:06;;;;;;;;;;;18.70;47.70;;;;;;5005214;28;19941;-73
2023/02/18 05:58:32;;;;;;;;;;;18.70;47.80;;;;;;5004974;28;19917;-75
2023/02/18 06:00:58;;;;;;;;;;;18.70;47.90;;;;;;5005077;28;19944;-74
2023/02/18 06:03:23;;;;;;;;;;;18.60;48.00;;;;;;5004813;28;19932;-74
2023/02/18 06:05:49;;;;;;;;;;;18.60;48.10;;;;;;5005599;28;19941;-74
2023/02/18 06:08:15;;;;;;;;;;;18.60;48.10;;;;;;5005689;28;19916;-72
2023/02/18 06:10:40;;;;;;;;;;;18.50;48.20;;;;;;5006068;28;20216;-73
2023/02/18 06:13:06;;;;;;;;;;;18.40;48.20;;;;;;5009614;28;19940;-75
2023/02/18 06:15:31;;;;;;;;;;;18.50;48.40;;;;;;5009507;28;19905;-72
2023/02/18 06:17:57;;;;;;;;;;;18.40;48.40;;;;;;5007990;28;19913;-76
2023/02/18 06:20:22;;;;;;;;;;;18.40;48.60;;;;;;5007844;28;19981;-73
2023/02/18 06:22:48;;;;;;;;;;;18.30;48.60;;;;;;5008184;28;19909;-74
2023/02/18 06:25:13;;;;;;;;;;;18.30;48.70;;;;;;5008161;28;20319;-74
2023/02/18 06:27:39;;;;;;;;;;;18.30;48.60;;;;;;5008236;28;19910;-74
2023/02/18 06:30:05;;;;;;;;;;;18.40;48.60;;;;;;5008593;28;19917;-75
2023/02/18 06:32:30;;;;;;;;;;;18.50;48.50;;;;;;5008911;28;19909;-73
2023/02/18 06:34:56;;;;;;;;;;;18.60;48.30;;;;;;5009124;28;20217;-75
2023/02/18 06:37:21;;;;;;;;;;;18.70;48.10;;;;;;5009019;28;19929;-74
2023/02/18 06:39:47;;;;;;;;;;;18.70;47.80;;;;;;5008896;28;20101;-75
2023/02/18 06:42:12;;;;;;;;;;;18.80;47.70;;;;;;5008779;28;20101;-74
2023/02/18 06:44:38;;;;;;;;;;;18.80;47.50;;;;;;5009269;28;19917;-72
2023/02/18 06:47:03;;;;;;;;;;;18.80;47.50;;;;;;5009327;28;19909;-73
2023/02/18 06:49:29;;;;;;;;;;;18.90;47.50;;;;;;5008597;28;19905;-72
2023/02/18 06:51:55;;;;;;;;;;;18.90;47.30;;;;;;5009046;28;19910;-72
2023/02/18 06:54:20;;;;;;;;;;;18.90;47.20;;;;;;5006704;28;19922;-74
2023/02/18 06:56:46;;;;;;;;;;;18.90;47.40;;;;;;5009045;28;20225;-75
2023/02/18 06:59:11;;;;;;;;;;;18.90;47.40;;;;;;5009699;28;20190;-73
2023/02/18 07:01:37;;;;;;;;;;;18.80;47.30;;;;;;5009264;28;19933;-75
2023/02/18 07:04:02;;;;;;;;;;;18.80;47.40;;;;;;5008234;28;19906;-71
2023/02/18 07:06:28;;;;;;;;;;;18.80;47.50;;;;;;5008716;28;19909;-71
2023/02/18 07:08:53;;;;;;;;;;;18.80;47.70;;;;;;5008391;28;20142;-74
2023/02/18 07:11:19;;;;;;;;;;;18.70;47.60;;;;;;5007486;28;19980;-71
2023/02/18 07:13:44;;;;;;;;;;;18.70;47.80;;;;;;5006241;28;19909;-74
2023/02/18 07:16:10;;;;;;;;;;;18.70;47.80;;;;;;5007813;28;20051;-74
2023/02/18 07:18:36;;;;;;;;;;;18.70;47.70;;;;;;5008230;28;19983;-73
2023/02/18 07:21:01;;;;;;;;;;;18.60;47.80;;;;;;5007499;28;19924;-74
2023/02/18 07:23:27;;;;;;;;;;;18.60;47.90;;;;;;5007083;28;19910;-76
2023/02/18 07:26:01;;;;;;;;;;;18.60;47.90;;;;;;5007659;28;19905;-75
2023/02/18 07:28:27;;;;;;;;;;;18.60;47.80;;;;;;5007599;28;19910;-71
2023/02/18 07:30:52;;;;;;;;;;;18.60;47.90;;;;;;5007747;28;19985;-73
2023/02/18 07:33:18;;;;;;;;;;;18.60;48.00;;;;;;5007186;28;19901;-75
2023/02/18 07:35:43;;;;;;;;;;;18.50;48.00;;;;;;5008085;28;19906;-72
2023/02/18 07:38:09;;;;;;;;;;;18.50;48.10;;;;;;5006828;28;19933;-72
2023/02/18 07:40:34;;;;;;;;;;;18.50;48.00;;;;;;5005931;28;19982;-72
2023/02/18 07:43:00;;;;;;;;;;;18.50;48.00;;;;;;5007816;28;20408;-73
2023/02/18 07:45:25;;;;;;;;;;;18.50;48.20;;;;;;5007741;28;20176;-70
2023/02/18 07:47:51;;;;;;;;;;;18.50;48.20;;;;;;5006154;28;19913;-74
2023/02/18 07:50:17;;;;;;;;;;;18.50;48.10;;;;;;5005982;28;19913;-74
2023/02/18 07:52:42;;;;;;;;;;;18.50;48.10;;;;;;5007558;28;19909;-72
2023/02/18 07:55:08;;;;;;;;;;;18.50;48.20;;;;;;5007359;28;20199;-73
2023/02/18 07:57:56;;;;;;;;;;;18.50;48.10;;;;;;5007761;28;19970;-71
2023/02/18 08:00:19;;;;;;;;;;;18.50;48.10;;;;;;5007726;28;19905;-75
2023/02/18 08:02:44;;;;;;;;;;;18.60;48.10;;;;;;5006984;28;19989;-73
2023/02/18 08:05:10;;;;;;;;;;;18.60;48.00;;;;;;5007474;28;19988;-73
2023/02/18 08:07:36;;;;;;;;;;;18.70;47.70;;;;;;5007587;28;19952;-72
2023/02/18 08:10:02;;;;;;;;;;;18.70;47.60;;;;;;5006981;28;19909;-74
2023/02/18 08:12:27;;;;;;;;;;;18.80;47.60;;;;;;5006366;28;19914;-71
2023/02/18 08:14:53;;;;;;;;;;;18.80;47.40;;;;;;5005911;28;19917;-71
2023/02/18 08:17:18;;;;;;;;;;;18.80;47.30;;;;;;5006710;28;19902;-71
2023/02/18 08:19:44;;;;;;;;;;;18.80;47.30;;;;;;5006639;28;20137;-74
2023/02/18 08:22:09;;;;;;;;;;;18.90;47.40;;;;;;5006785;28;20382;-74
2023/02/18 08:24:35;;;;;;;;;;;18.90;47.40;;;;;;5006390;28;19941;-74
2023/02/18 08:27:00;;;;;;;;;;;18.90;47.40;;;;;;5007179;28;19909;-74
2023/02/18 08:29:26;;;;;;;;;;;18.80;47.40;;;;;;5007010;28;19917;-72
2023/02/18 08:31:53;;;;;;;;;;;18.80;47.60;;;;;;5005885;28;20280;-72
2023/02/18 08:34:18;;;;;;;;;;;18.70;47.60;;;;;;5005940;28;19917;-76
2023/02/18 08:36:44;;;;;;;;;;;18.70;48.40;;;;;;5004950;28;19910;-74
2023/02/18 08:39:09;;;;;;;;;;;18.70;47.80;;;;;;5006114;28;19929;-71
2023/02/18 08:41:35;;;;;;;;;;;18.60;47.90;;;;;;5006646;28;19917;-70
2023/02/18 08:44:00;;;;;;;;;;;18.60;47.90;;;;;;5006291;28;20232;-72
2023/02/18 08:46:26;;;;;;;;;;;18.60;47.90;;;;;;5005627;28;20133;-73
2023/02/18 08:48:51;;;;;;;;;;;18.60;48.00;;;;;;5004959;28;20209;-74
2023/02/18 08:51:19;;;;;;;;;;;18.60;48.00;;;;;;5005066;28;19917;-73
2023/02/18 08:53:46;;;;;;;;;;;18.50;48.10;;;;;;5006020;28;19922;-72
2023/02/18 08:56:13;;;;;;;;;;;18.50;48.00;;;;;;5005396;28;19910;-73
2023/02/18 08:58:39;;;;;;;;;;;18.50;48.00;;;;;;5005284;28;19917;-71
2023/02/18 09:01:05;;;;;;;;;;;18.50;48.10;;;;;;5005350;28;19909;-74
2023/02/18 09:03:31;;;;;;;;;;;18.50;48.10;;;;;;5005584;28;19914;-71
2023/02/18 09:05:57;;;;;;;;;;;18.50;48.10;;;;;;5005296;28;19917;-72
2023/02/18 09:08:23;;;;;;;;;;;18.50;48.10;;;;;;5005509;28;19909;-71
2023/02/18 09:10:48;;;;;;;;;;;18.50;48.20;;;;;;5005597;28;19916;-73
2023/02/18 09:13:14;;;;;;;;;;;18.50;48.20;;;;;;5005435;28;19909;-73
2023/02/18 09:15:40;;;;;;;;;;;18.40;48.20;;;;;;5005929;28;19917;-72
2023/02/18 09:18:05;;;;;;;;;;;18.40;48.20;;;;;;5005284;28;19902;-74
2023/02/18 09:20:31;;;;;;;;;;;18.40;48.30;;;;;;5005338;28;19968;-72
2023/02/18 09:22:57;;;;;;;;;;;18.40;48.40;;;;;;5004911;28;19910;-75
2023/02/18 09:25:22;;;;;;;;;;;18.40;48.40;;;;;;5005337;28;19920;-72
2023/02/18 09:27:48;;;;;;;;;;;18.40;48.40;;;;;;5005265;28;20283;-72
2023/02/18 09:30:14;;;;;;;;;;;18.40;48.40;;;;;;5004867;28;19909;-71
2023/02/18 09:32:39;;;;;;;;;;;18.40;48.40;;;;;;5005176;28;19917;-73
2023/02/18 09:35:05;;;;;;;;;;;18.40;48.40;;;;;;5006506;28;19917;-73
2023/02/18 09:37:30;;;;;;;;;;;18.40;48.40;;;;;;5006184;28;19902;-75
2023/02/18 09:39:56;;;;;;;;;;;18.40;48.30;;;;;;5006277;28;20009;-71
2023/02/18 09:42:26;;;;;;;;;;;18.40;48.40;;;;;;5006438;28;19902;-72
2023/02/18 09:44:55;;;;;;;;;;;18.40;48.40;;;;;;5005637;28;19952;-71
2023/02/18 09:47:24;;;;;;;;;;;18.40;48.30;;;;;;5007519;28;19916;-72
2023/02/18 09:50:04;;;;;;;;;;;18.40;48.30;;;;;;5008459;28;20214;-71
2023/02/18 09:52:32;;;;;;;;;;;18.40;48.30;;;;;;5008392;28;19933;-71
2023/02/18 09:54:58;;;;;;;;;;;18.40;48.40;;;;;;5009970;28;19948;-73
2023/02/18 09:57:43;;;;;;;;;;;18.40;48.40;;;;;;5008601;28;19909;-72
2023/02/18 10:00:30;;;;;;;;;;;18.40;48.40;;;;;;5008146;28;19956;-72
2023/02/18 10:02:59;;;;;;;;;;;18.40;48.50;;;;;;5008256;28;19916;-74
2023/02/18 10:05:26;;;;;;;;;;;18.40;48.50;;;;;;5008291;28;19913;-73
2023/02/18 10:07:53;;;;;;;;;;;18.40;48.60;;;;;;5008774;28;19908;-75
2023/02/18 10:10:31;;;;;;;;;;;18.40;48.50;;;;;;5008711;28;19932;-72
2023/02/18 10:12:57;;;;;;;;;;;18.50;48.50;;;;;;5008663;28;19910;-74
2023/02/18 10:15:26;;;;;;;;;;;18.50;48.30;;;;;;5008346;28;19941;-74
2023/02/18 10:17:51;;;;;;;;;;;18.50;48.30;;;;;;5009396;28;19909;-72
2023/02/18 10:20:20;;;;;;;;;;;18.60;48.20;;;;;;5008947;28;19920;-71
2023/02/18 10:22:46;;;;;;;;;;;18.60;48.00;;;;;;5008242;28;19917;-72
2023/02/18 10:25:16;;;;;;;;;;;18.70;48.00;;;;;;5008333;28;19913;-72
2023/02/18 10:27:42;;;;;;;;;;;18.70;48.00;;;;;;5008594;28;19909;-71
2023/02/18 10:30:13;;;;;;;;;;;18.70;47.90;;;;;;5008865;28;19961;-72
2023/02/18 10:32:41;;;;;;;;;;;18.70;47.90;;;;;;5009600;28;19952;-70
2023/02/18 10:35:24;;;;;;;;;;;18.80;47.90;;;;;;5010035;28;19909;-73
2023/02/18 10:38:08;;;;;;;;;;;18.80;47.80;;;;;;5008863;28;19948;-71
2023/02/18 10:40:43;;;;;;;;;;;18.80;47.90;;;;;;5008014;28;19909;-73
2023/02/18 10:43:21;;;;;;;;;;;18.70;47.90;;;;;;5008433;28;19917;-70
2023/02/18 10:46:05;;;;;;;;;;;18.70;48.10;;;;;;5009899;28;19937;-72
2023/02/18 10:48:31;;;;;;;;;;;18.60;48.20;;;;;;5009424;28;19902;-73
2023/02/18 10:50:58;;;;;;;;;;;18.60;48.30;;;;;;5009142;28;20255;-71
2023/02/18 10:53:35;;;;;;;;;;;18.60;48.40;;;;;;5008977;28;19910;-74
2023/02/18 10:56:00;;;;;;;;;;;18.50;48.40;;;;;;5009099;28;19920;-71
2023/02/18 10:58:36;;;;;;;;;;;18.50;48.50;;;;;;5007329;28;19945;-74
2023/02/18 11:01:04;;;;;;;;;;;18.50;48.50;;;;;;5007987;28;19906;-72
2023/02/18 11:03:41;;;;;;;;;;;18.50;48.60;;;;;;5008484;28;19909;-72
2023/02/18 11:06:20;;;;;;;;;;;18.50;48.60;;;;;;5007255;28;19995;-71
2023/02/18 11:08:46;;;;;;;;;;;18.40;48.60;;;;;;5008383;28;19952;-71
2023/02/18 11:11:32;;;;;;;;;;;18.40;48.60;;;;;;5008084;28;19910;-74
2023/02/18 11:13:58;;;;;;;;;;;18.40;48.60;;;;;;5008193;28;19931;-72
2023/02/18 11:16:36;;;;;;;;;;;18.40;48.60;;;;;;5008829;28;19902;-72
2023/02/18 11:19:03;;;;;;;;;;;18.50;48.70;;;;;;5009013;28;19915;-72
2023/02/18 11:21:30;;;;;;;;;;;18.40;48.60;;;;;;5008515;28;19901;-74
2023/02/18 11:23:56;;;;;;;;;;;18.40;48.70;;;;;;5008675;28;19909;-73
2023/02/18 11:26:32;;;;;;;;;;;18.40;48.70;;;;;;5008519;28;19910;-73
2023/02/18 11:29:18;;;;;;;;;;;18.40;48.70;;;;;;5008010;28;19987;-71
2023/02/18 11:31:45;;;;;;;;;;;18.40;48.70;;;;;;5006646;28;19901;-73
2023/02/18 11:34:18;;;;;;;;;;;18.40;48.60;;;;;;5007871;28;20441;-73
2023/02/18 11:36:45;;;;;;;;;;;18.50;48.60;;;;;;5007871;28;19909;-71
2023/02/18 11:39:25;;;;;;;;;;;18.50;48.60;;;;;;5007909;28;19917;-70
2023/02/18 11:42:02;;;;;;;;;;;18.50;48.50;;;;;;5006057;28;19909;-71
2023/02/18 11:44:27;;;;;;;;;;;18.50;48.50;;;;;;5007943;28;19909;-74
2023/02/18 11:47:02;;;;;;;;;;;18.50;48.50;;;;;;5008087;28;19973;-74
2023/02/18 11:49:28;;;;;;;;;;;18.50;48.50;;;;;;5008300;28;20075;-71
2023/02/18 11:51:54;;;;;;;;;;;18.50;48.60;;;;;;5008341;28;19902;-71
2023/02/18 11:54:23;;;;;;;;;;;18.50;48.60;;;;;;5007104;28;20287;-70
2023/02/18 11:56:55;;;;;;;;;;;18.50;48.60;;;;;;5007152;28;19943;-73
2023/02/18 11:59:21;;;;;;;;;;;18.50;48.60;;;;;;5007273;28;19916;-71
2023/02/18 12:01:50;;;;;;;;;;;18.50;48.60;;;;;;5007061;28;19913;-72
2023/02/18 12:04:16;;;;;;;;;;;18.50;48.60;;;;;;5007163;28;20117;-70
2023/02/18 12:06:42;;;;;;;;;;;18.50;48.60;;;;;;5006915;28;20360;-73
2023/02/18 12:09:27;;;;;;;;;;;18.50;48.60;;;;;;5007393;28;19902;-70
2023/02/18 12:11:57;;;;;;;;;;;18.50;48.70;;;;;;5007475;28;19909;-72
2023/02/18 12:14:23;;;;;;;;;;;18.50;48.70;;;;;;5005663;28;19917;-73
2023/02/18 12:17:04;;;;;;;;;;;18.50;48.60;;;;;;5007714;28;19909;-71
2023/02/18 12:19:36;;;;;;;;;;;18.40;48.60;;;;;;5007239;28;19909;-71
2023/02/18 12:22:01;;;;;;;;;;;18.50;48.70;;;;;;5007016;28;20198;-71
2023/02/18 12:24:40;;;;;;;;;;;18.50;48.70;;;;;;5006973;28;19905;-75
2023/02/18 12:27:11;;;;;;;;;;;18.50;48.60;;;;;;5005945;28;20075;-71
2023/02/18 12:29:48;;;;;;;;;;;18.60;48.50;;;;;;5005792;28;19909;-72
2023/02/18 12:32:23;;;;;;;;;;;18.60;48.40;;;;;;5006093;28;19916;-72
2023/02/18 12:34:49;;;;;;;;;;;18.70;48.20;;;;;;5007275;28;19913;-75
2023/02/18 12:37:17;;;;;;;;;;;18.70;48.10;;;;;;5007541;28;20356;-72
2023/02/18 12:40:02;;;;;;;;;;;18.80;48.10;;;;;;5006403;28;19981;-71
2023/02/18 12:42:30;;;;;;;;;;;18.70;48.00;;;;;;5007316;28;19910;-71
2023/02/18 12:45:08;;;;;;;;;;;18.70;48.10;;;;;;5007591;28;19920;-71
2023/02/18 12:47:36;;;;;;;;;;;18.70;48.10;;;;;;5005889;28;19909;-71
2023/02/18 12:50:14;;;;;;;;;;;18.70;48.10;;;;;;5005519;28;19910;-73
2023/02/18 12:52:55;;;;;;;;;;;18.70;48.20;;;;;;5006588;28;19909;-71
2023/02/18 12:55:41;;;;;;;;;;;18.70;48.30;;;;;;5007248;28;20198;-70
2023/02/18 12:58:13;;;;;;;;;;;18.60;48.40;;;;;;5005505;28;19909;-71
2023/02/18 13:00:51;;;;;;;;;;;18.60;48.40;;;;;;5005827;28;19947;-72
2023/02/18 13:03:19;;;;;;;;;;;18.60;48.40;;;;;;5005995;28;19905;-71
2023/02/18 13:05:54;;;;;;;;;;;18.70;48.40;;;;;;5004784;28;20228;-71
2023/02/18 13:08:38;;;;;;;;;;;18.70;48.40;;;;;;5005857;28;19944;-70
2023/02/18 13:11:07;;;;;;;;;;;18.70;48.30;;;;;;5007521;28;19910;-73
2023/02/18 13:13:36;;;;;;;;;;;18.70;48.40;;;;;;5007195;28;19910;-71
2023/02/18 13:16:07;;;;;;;;;;;18.70;48.30;;;;;;5007444;28;19901;-72
2023/02/18 13:18:35;;;;;;;;;;;18.70;48.30;;;;;;5006294;28;19925;-72
2023/02/18 13:21:03;;;;;;;;;;;18.70;48.40;;;;;;5006196;28;19944;-72
2023/02/18 13:23:34;;;;;;;;;;;18.70;48.40;;;;;;5007114;28;19929;-71
2023/02/18 13:26:02;;;;;;;;;;;18.70;48.50;;;;;;5006740;28;19914;-71
2023/02/18 13:28:27;;;;;;;;;;;18.60;48.50;;;;;;5007457;28;19909;-72
2023/02/18 13:30:59;;;;;;;;;;;18.60;48.60;;;;;;5006956;28;19979;-71
2023/02/18 13:33:27;;;;;;;;;;;18.60;48.70;;;;;;5006603;28;19917;-72
2023/02/18 13:36:22;;;;;;;;;;;18.60;48.70;;;;;;5005819;28;19916;-71
2023/02/18 13:38:59;;;;;;;;;;;18.50;48.70;;;;;;4997257;28;19941;-71
2023/02/18 13:41:26;;;;;;;;;;;18.50;48.70;;;;;;5006506;28;19996;-71
2023/02/18 13:43:52;;;;;;;;;;;18.50;48.70;;;;;;5006623;28;19902;-72
2023/02/18 13:46:19;;;;;;;;;;;18.50;48.70;;;;;;5006450;28;19956;-71
2023/02/18 13:48:46;;;;;;;;;;;18.50;48.80;;;;;;5005275;28;19916;-73
2023/02/18 13:51:17;;;;;;;;;;;18.50;48.90;;;;;;5006283;28;19937;-75
2023/02/18 13:53:48;;;;;;;;;;;18.50;48.90;;;;;;5005915;28;19981;-74
2023/02/18 13:56:27;;;;;;;;;;;18.50;48.90;;;;;;5006339;28;19945;-70
2023/02/18 13:59:11;;;;;;;;;;;18.50;48.90;;;;;;5005505;28;19909;-71
2023/02/18 14:01:39;;;;;;;;;;;18.50;48.80;;;;;;5006130;28;19977;-76
2023/02/18 14:04:24;;;;;;;;;;;18.50;48.90;;;;;;5004531;28;19910;-71
2023/02/18 14:07:08;;;;;;;;;;;18.50;48.70;;;;;;5005976;28;19910;-72
2023/02/18 14:09:35;;;;;;;;;;;18.50;48.80;;;;;;5005847;28;19910;-74
2023/02/18 14:12:19;;;;;;;;;;;18.50;48.80;;;;;;5006461;28;19941;-71
2023/02/18 14:14:45;;;;;;;;;;;18.60;48.70;;;;;;5006218;28;20208;-72
2023/02/18 14:17:19;;;;;;;;;;;18.70;48.50;;;;;;5006782;28;20249;-71
2023/02/18 14:19:59;;;;;;;;;;;18.80;48.20;;;;;;5006577;28;19909;-71
2023/02/18 14:22:31;;;;;;;;;;;19.00;47.70;;;;;;5005494;28;19909;-72
2023/02/18 14:25:00;;;;;;;;;;;19.10;47.40;;;;;;5005009;28;19972;-71
2023/02/18 14:27:25;;;;;;;;;;;19.30;47.30;;;;;;5005590;28;19937;-75